sensor_id;sensor_type;location;lat;lon;timestamp;temperature;humidity
18694;DHT22;9477;51.414;10.362;2023-05-21T00:01:46;18.70;75.90
18694;DHT22;9477;51.414;10.362;2023-05-21T00:03:50;18.80;75.90
18694;DHT22;9477;51.414;10.362;2023-05-21T00:05:54;18.70;76.10
18694;DHT22;9477;51.414;10.362;2023-05-21T00:07:56;18.70;76.50
18694;DHT22;9477;51.414;10.362;2023-05-21T00:10:00;18.60;76.70
18694;DHT22;9477;51.414;10.362;2023-05-21T00:12:04;18.60;77.00
18694;DHT22;9477;51.414;10.362;2023-05-21T00:14:07;18.50;77.10
18694;DHT22;9477;51.414;10.362;2023-05-21T00:16:10;18.60;77.20
18694;DHT22;9477;51.414;10.362;2023-05-21T00:18:12;18.50;77.30
18694;DHT22;9477;51.414;10.362;2023-05-21T00:20:15;18.60;78.20
18694;DHT22;9477;51.414;10.362;2023-05-21T00:22:18;18.50;77.40
18694;DHT22;9477;51.414;10.362;2023-05-21T00:24:21;18.50;77.70
18694;DHT22;9477;51.414;10.362;2023-05-21T00:26:25;18.60;77.70
18694;DHT22;9477;51.414;10.362;2023-05-21T00:28:28;18.50;77.80
18694;DHT22;9477;51.414;10.362;2023-05-21T00:30:31;18.50;78.00
18694;DHT22;9477;51.414;10.362;2023-05-21T00:32:34;18.50;78.00
18694;DHT22;9477;51.414;10.362;2023-05-21T00:34:37;18.60;78.10
18694;DHT22;9477;51.414;10.362;2023-05-21T00:36:40;18.50;77.90
18694;DHT22;9477;51.414;10.362;2023-05-21T00:38:46;18.50;78.10
18694;DHT22;9477;51.414;10.362;2023-05-21T00:40:49;18.50;78.20
18694;DHT22;9477;51.414;10.362;2023-05-21T00:42:54;18.50;78.20
18694;DHT22;9477;51.414;10.362;2023-05-21T00:44:57;18.60;78.20
18694;DHT22;9477;51.414;10.362;2023-05-21T00:47:01;18.60;78.00
18694;DHT22;9477;51.414;10.362;2023-05-21T00:49:04;18.50;78.00
18694;DHT22;9477;51.414;10.362;2023-05-21T00:51:07;18.50;78.10
18694;DHT22;9477;51.414;10.362;2023-05-21T00:53:10;18.50;78.30
18694;DHT22;9477;51.414;10.362;2023-05-21T00:55:14;18.50;78.40
18694;DHT22;9477;51.414;10.362;2023-05-21T00:57:17;18.50;78.40
18694;DHT22;9477;51.414;10.362;2023-05-21T00:59:23;18.50;78.60
18694;DHT22;9477;51.414;10.362;2023-05-21T01:01:26;18.40;79.10
18694;DHT22;9477;51.414;10.362;2023-05-21T01:03:34;18.40;79.10
18694;DHT22;9477;51.414;10.362;2023-05-21T01:05:39;18.40;79.20
18694;DHT22;9477;51.414;10.362;2023-05-21T01:07:45;18.30;79.50
18694;DHT22;9477;51.414;10.362;2023-05-21T01:09:48;18.30;79.60
18694;DHT22;9477;51.414;10.362;2023-05-21T01:11:51;18.40;79.60
18694;DHT22;9477;51.414;10.362;2023-05-21T01:13:56;18.30;79.70
18694;DHT22;9477;51.414;10.362;2023-05-21T01:16:01;18.20;80.10
18694;DHT22;9477;51.414;10.362;2023-05-21T01:18:04;18.30;79.80
18694;DHT22;9477;51.414;10.362;2023-05-21T01:20:09;18.30;79.80
18694;DHT22;9477;51.414;10.362;2023-05-21T01:22:13;18.40;79.80
18694;DHT22;9477;51.414;10.362;2023-05-21T01:24:18;18.30;80.00
18694;DHT22;9477;51.414;10.362;2023-05-21T01:26:20;18.30;80.00
18694;DHT22;9477;51.414;10.362;2023-05-21T01:28:26;18.30;79.70
18694;DHT22;9477;51.414;10.362;2023-05-21T01:30:30;18.40;79.90
18694;DHT22;9477;51.414;10.362;2023-05-21T01:32:37;18.40;79.80
18694;DHT22;9477;51.414;10.362;2023-05-21T01:34:49;18.40;80.00
18694;DHT22;9477;51.414;10.362;2023-05-21T01:37:02;18.40;80.00
18694;DHT22;9477;51.414;10.362;2023-05-21T01:39:08;18.30;80.20
18694;DHT22;9477;51.414;10.362;2023-05-21T01:41:17;18.30;80.10
18694;DHT22;9477;51.414;10.362;2023-05-21T01:43:21;18.30;80.10
18694;DHT22;9477;51.414;10.362;2023-05-21T01:45:25;18.30;80.10
18694;DHT22;9477;51.414;10.362;2023-05-21T01:47:29;18.30;80.20
18694;DHT22;9477;51.414;10.362;2023-05-21T01:49:33;18.40;80.30
18694;DHT22;9477;51.414;10.362;2023-05-21T01:51:37;18.30;80.20
18694;DHT22;9477;51.414;10.362;2023-05-21T01:53:40;18.40;80.20
18694;DHT22;9477;51.414;10.362;2023-05-21T01:55:43;18.40;80.10
18694;DHT22;9477;51.414;10.362;2023-05-21T01:57:47;18.40;80.30
18694;DHT22;9477;51.414;10.362;2023-05-21T01:59:51;18.40;80.20
18694;DHT22;9477;51.414;10.362;2023-05-21T02:01:55;18.30;80.30
18694;DHT22;9477;51.414;10.362;2023-05-21T02:03:58;18.30;80.30
18694;DHT22;9477;51.414;10.362;2023-05-21T02:06:01;18.40;80.40
18694;DHT22;9477;51.414;10.362;2023-05-21T02:08:04;18.30;80.30
18694;DHT22;9477;51.414;10.362;2023-05-21T02:10:09;18.30;80.40
18694;DHT22;9477;51.414;10.362;2023-05-21T02:12:12;18.30;80.50
18694;DHT22;9477;51.414;10.362;2023-05-21T02:14:16;18.30;80.60
18694;DHT22;9477;51.414;10.362;2023-05-21T02:16:19;18.30;80.70
18694;DHT22;9477;51.414;10.362;2023-05-21T02:18:22;18.30;80.60
18694;DHT22;9477;51.414;10.362;2023-05-21T02:20:26;18.30;80.70
18694;DHT22;9477;51.414;10.362;2023-05-21T02:22:29;18.30;80.70
18694;DHT22;9477;51.414;10.362;2023-05-21T02:24:32;18.30;80.70
18694;DHT22;9477;51.414;10.362;2023-05-21T02:26:35;18.30;80.80
18694;DHT22;9477;51.414;10.362;2023-05-21T02:28:38;18.30;80.80
18694;DHT22;9477;51.414;10.362;2023-05-21T02:30:42;18.20;81.20
18694;DHT22;9477;51.414;10.362;2023-05-21T02:32:45;18.20;81.10
18694;DHT22;9477;51.414;10.362;2023-05-21T02:34:49;18.20;81.10
18694;DHT22;9477;51.414;10.362;2023-05-21T02:36:52;18.10;81.50
18694;DHT22;9477;51.414;10.362;2023-05-21T02:38:55;18.10;81.60
18694;DHT22;9477;51.414;10.362;2023-05-21T02:40:58;18.00;81.70
18694;DHT22;9477;51.414;10.362;2023-05-21T02:43:01;18.10;81.80
18694;DHT22;9477;51.414;10.362;2023-05-21T02:45:04;18.10;81.70
18694;DHT22;9477;51.414;10.362;2023-05-21T02:47:08;18.10;81.80
18694;DHT22;9477;51.414;10.362;2023-05-21T02:49:13;18.10;81.90
18694;DHT22;9477;51.414;10.362;2023-05-21T02:51:15;18.00;81.90
18694;DHT22;9477;51.414;10.362;2023-05-21T02:53:18;18.00;82.20
18694;DHT22;9477;51.414;10.362;2023-05-21T02:55:21;17.90;82.20
18694;DHT22;9477;51.414;10.362;2023-05-21T02:57:24;17.90;82.20
18694;DHT22;9477;51.414;10.362;2023-05-21T02:59:27;18.00;82.30
18694;DHT22;9477;51.414;10.362;2023-05-21T03:01:30;18.00;82.30
18694;DHT22;9477;51.414;10.362;2023-05-21T03:03:34;17.80;82.50
18694;DHT22;9477;51.414;10.362;2023-05-21T03:05:37;17.80;82.60
18694;DHT22;9477;51.414;10.362;2023-05-21T03:07:40;17.90;82.80
18694;DHT22;9477;51.414;10.362;2023-05-21T03:09:44;17.90;82.80
18694;DHT22;9477;51.414;10.362;2023-05-21T03:11:47;17.80;82.80
18694;DHT22;9477;51.414;10.362;2023-05-21T03:13:50;17.80;83.00
18694;DHT22;9477;51.414;10.362;2023-05-21T03:15:53;17.80;83.00
18694;DHT22;9477;51.414;10.362;2023-05-21T03:17:57;17.70;83.30
18694;DHT22;9477;51.414;10.362;2023-05-21T03:20:01;17.70;83.40
18694;DHT22;9477;51.414;10.362;2023-05-21T03:22:06;17.70;83.50
18694;DHT22;9477;51.414;10.362;2023-05-21T03:24:09;17.80;83.50
18694;DHT22;9477;51.414;10.362;2023-05-21T03:26:14;17.70;83.60
18694;DHT22;9477;51.414;10.362;2023-05-21T03:28:17;17.70;83.70
18694;DHT22;9477;51.414;10.362;2023-05-21T03:30:20;17.80;83.70
18694;DHT22;9477;51.414;10.362;2023-05-21T03:32:22;17.90;83.60
18694;DHT22;9477;51.414;10.362;2023-05-21T03:34:25;17.90;83.50
18694;DHT22;9477;51.414;10.362;2023-05-21T03:36:29;17.90;83.50
18694;DHT22;9477;51.414;10.362;2023-05-21T03:38:32;18.00;83.50
18694;DHT22;9477;51.414;10.362;2023-05-21T03:40:37;18.00;83.50
18694;DHT22;9477;51.414;10.362;2023-05-21T03:42:40;18.00;83.60
18694;DHT22;9477;51.414;10.362;2023-05-21T03:44:43;18.00;83.60
18694;DHT22;9477;51.414;10.362;2023-05-21T03:46:46;18.00;83.70
18694;DHT22;9477;51.414;10.362;2023-05-21T03:48:49;18.00;83.90
18694;DHT22;9477;51.414;10.362;2023-05-21T03:50:52;18.00;83.90
18694;DHT22;9477;51.414;10.362;2023-05-21T03:52:56;18.10;84.00
18694;DHT22;9477;51.414;10.362;2023-05-21T03:54:59;18.10;83.90
18694;DHT22;9477;51.414;10.362;2023-05-21T03:57:02;18.10;83.90
18694;DHT22;9477;51.414;10.362;2023-05-21T03:59:05;18.20;83.90
18694;DHT22;9477;51.414;10.362;2023-05-21T04:01:08;18.30;83.90
18694;DHT22;9477;51.414;10.362;2023-05-21T04:03:11;18.30;83.90
18694;DHT22;9477;51.414;10.362;2023-05-21T04:05:14;18.30;83.80
18694;DHT22;9477;51.414;10.362;2023-05-21T04:07:17;18.30;83.70
18694;DHT22;9477;51.414;10.362;2023-05-21T04:09:21;18.30;83.70
18694;DHT22;9477;51.414;10.362;2023-05-21T04:11:24;18.40;83.80
18694;DHT22;9477;51.414;10.362;2023-05-21T04:13:26;18.40;83.80
18694;DHT22;9477;51.414;10.362;2023-05-21T04:15:29;18.40;83.80
18694;DHT22;9477;51.414;10.362;2023-05-21T04:17:33;18.50;83.90
18694;DHT22;9477;51.414;10.362;2023-05-21T04:19:36;18.60;83.90
18694;DHT22;9477;51.414;10.362;2023-05-21T04:21:39;18.70;83.90
18694;DHT22;9477;51.414;10.362;2023-05-21T04:23:42;18.80;83.80
18694;DHT22;9477;51.414;10.362;2023-05-21T04:25:46;18.80;83.70
18694;DHT22;9477;51.414;10.362;2023-05-21T04:27:51;18.90;83.70
18694;DHT22;9477;51.414;10.362;2023-05-21T04:29:55;18.90;83.50
18694;DHT22;9477;51.414;10.362;2023-05-21T04:31:58;19.10;83.60
18694;DHT22;9477;51.414;10.362;2023-05-21T04:34:01;19.20;83.40
18694;DHT22;9477;51.414;10.362;2023-05-21T04:36:04;19.20;83.10
18694;DHT22;9477;51.414;10.362;2023-05-21T04:38:10;19.40;83.20
18694;DHT22;9477;51.414;10.362;2023-05-21T04:40:13;19.50;83.00
18694;DHT22;9477;51.414;10.362;2023-05-21T04:42:20;19.50;82.70
18694;DHT22;9477;51.414;10.362;2023-05-21T04:44:24;19.60;82.70
18694;DHT22;9477;51.414;10.362;2023-05-21T04:46:27;19.50;82.20
18694;DHT22;9477;51.414;10.362;2023-05-21T04:48:31;19.60;82.30
18694;DHT22;9477;51.414;10.362;2023-05-21T04:50:34;19.70;82.40
18694;DHT22;9477;51.414;10.362;2023-05-21T04:52:38;19.70;82.20
18694;DHT22;9477;51.414;10.362;2023-05-21T04:54:41;19.80;82.10
18694;DHT22;9477;51.414;10.362;2023-05-21T04:56:46;19.90;82.00
18694;DHT22;9477;51.414;10.362;2023-05-21T04:58:50;19.90;81.80
18694;DHT22;9477;51.414;10.362;2023-05-21T05:00:54;19.90;81.90
18694;DHT22;9477;51.414;10.362;2023-05-21T05:02:58;19.90;81.70
18694;DHT22;9477;51.414;10.362;2023-05-21T05:05:01;19.90;81.70
18694;DHT22;9477;51.414;10.362;2023-05-21T05:07:05;19.90;81.60
18694;DHT22;9477;51.414;10.362;2023-05-21T05:09:08;20.00;81.60
18694;DHT22;9477;51.414;10.362;2023-05-21T05:11:11;20.00;81.30
18694;DHT22;9477;51.414;10.362;2023-05-21T05:13:14;20.00;81.30
18694;DHT22;9477;51.414;10.362;2023-05-21T05:15:18;20.10;81.40
18694;DHT22;9477;51.414;10.362;2023-05-21T05:17:21;20.20;81.30
18694;DHT22;9477;51.414;10.362;2023-05-21T05:19:25;20.30;81.10
18694;DHT22;9477;51.414;10.362;2023-05-21T05:21:28;20.30;80.70
18694;DHT22;9477;51.414;10.362;2023-05-21T05:23:31;20.30;80.80
18694;DHT22;9477;51.414;10.362;2023-05-21T05:25:34;20.40;80.90
18694;DHT22;9477;51.414;10.362;2023-05-21T05:27:37;20.40;80.70
18694;DHT22;9477;51.414;10.362;2023-05-21T05:29:39;20.40;80.90
18694;DHT22;9477;51.414;10.362;2023-05-21T05:31:44;20.50;80.80
18694;DHT22;9477;51.414;10.362;2023-05-21T05:33:47;20.60;80.50
18694;DHT22;9477;51.414;10.362;2023-05-21T05:35:50;20.60;80.40
18694;DHT22;9477;51.414;10.362;2023-05-21T05:37:52;20.70;80.40
18694;DHT22;9477;51.414;10.362;2023-05-21T05:39:55;20.70;80.40
18694;DHT22;9477;51.414;10.362;2023-05-21T05:41:58;20.80;80.30
18694;DHT22;9477;51.414;10.362;2023-05-21T05:44:01;20.80;79.50
18694;DHT22;9477;51.414;10.362;2023-05-21T05:46:04;20.80;79.70
18694;DHT22;9477;51.414;10.362;2023-05-21T05:48:08;20.90;79.70
18694;DHT22;9477;51.414;10.362;2023-05-21T05:50:11;20.90;79.60
18694;DHT22;9477;51.414;10.362;2023-05-21T05:52:14;21.00;79.30
18694;DHT22;9477;51.414;10.362;2023-05-21T05:54:17;21.10;79.10
18694;DHT22;9477;51.414;10.362;2023-05-21T05:56:19;21.00;78.90
18694;DHT22;9477;51.414;10.362;2023-05-21T05:58:22;21.00;78.90
18694;DHT22;9477;51.414;10.362;2023-05-21T06:00:25;20.80;78.00
18694;DHT22;9477;51.414;10.362;2023-05-21T06:02:28;20.90;78.60
18694;DHT22;9477;51.414;10.362;2023-05-21T06:04:32;20.90;78.40
18694;DHT22;9477;51.414;10.362;2023-05-21T06:06:35;21.00;78.70
18694;DHT22;9477;51.414;10.362;2023-05-21T06:08:38;21.10;78.60
18694;DHT22;9477;51.414;10.362;2023-05-21T06:10:41;21.10;78.30
18694;DHT22;9477;51.414;10.362;2023-05-21T06:12:43;21.20;78.80
18694;DHT22;9477;51.414;10.362;2023-05-21T06:14:46;21.20;78.40
18694;DHT22;9477;51.414;10.362;2023-05-21T06:16:49;21.40;78.20
18694;DHT22;9477;51.414;10.362;2023-05-21T06:18:52;21.50;78.40
18694;DHT22;9477;51.414;10.362;2023-05-21T06:20:56;21.70;78.00
18694;DHT22;9477;51.414;10.362;2023-05-21T06:22:59;21.70;77.60
18694;DHT22;9477;51.414;10.362;2023-05-21T06:25:02;21.90;77.70
18694;DHT22;9477;51.414;10.362;2023-05-21T06:27:05;22.00;77.50
18694;DHT22;9477;51.414;10.362;2023-05-21T06:29:08;22.10;77.40
18694;DHT22;9477;51.414;10.362;2023-05-21T06:31:11;22.30;77.30
18694;DHT22;9477;51.414;10.362;2023-05-21T06:33:14;22.30;76.40
18694;DHT22;9477;51.414;10.362;2023-05-21T06:35:17;22.30;76.40
18694;DHT22;9477;51.414;10.362;2023-05-21T06:37:21;22.30;76.00
18694;DHT22;9477;51.414;10.362;2023-05-21T06:39:27;22.40;76.30
18694;DHT22;9477;51.414;10.362;2023-05-21T06:41:29;22.40;76.20
18694;DHT22;9477;51.414;10.362;2023-05-21T06:43:32;22.50;76.20
18694;DHT22;9477;51.414;10.362;2023-05-21T06:45:35;22.50;76.00
18694;DHT22;9477;51.414;10.362;2023-05-21T06:47:38;22.50;76.00
18694;DHT22;9477;51.414;10.362;2023-05-21T06:49:41;22.60;75.70
18694;DHT22;9477;51.414;10.362;2023-05-21T06:51:44;22.70;75.90
18694;DHT22;9477;51.414;10.362;2023-05-21T06:53:48;22.80;75.70
18694;DHT22;9477;51.414;10.362;2023-05-21T06:55:51;22.90;75.10
18694;DHT22;9477;51.414;10.362;2023-05-21T06:57:56;23.00;75.10
18694;DHT22;9477;51.414;10.362;2023-05-21T06:59:59;23.10;75.00
18694;DHT22;9477;51.414;10.362;2023-05-21T07:02:02;23.20;74.50
18694;DHT22;9477;51.414;10.362;2023-05-21T07:04:05;23.20;74.20
18694;DHT22;9477;51.414;10.362;2023-05-21T07:06:08;23.30;74.00
18694;DHT22;9477;51.414;10.362;2023-05-21T07:08:10;23.40;74.20
18694;DHT22;9477;51.414;10.362;2023-05-21T07:10:15;23.60;74.60
18694;DHT22;9477;51.414;10.362;2023-05-21T07:12:18;23.70;73.70
18694;DHT22;9477;51.414;10.362;2023-05-21T07:14:20;23.90;73.70
18694;DHT22;9477;51.414;10.362;2023-05-21T07:16:23;24.00;73.10
18694;DHT22;9477;51.414;10.362;2023-05-21T07:18:26;24.20;73.00
18694;DHT22;9477;51.414;10.362;2023-05-21T07:20:29;24.20;73.20
18694;DHT22;9477;51.414;10.362;2023-05-21T07:22:32;24.40;73.50
18694;DHT22;9477;51.414;10.362;2023-05-21T07:24:34;24.50;72.50
18694;DHT22;9477;51.414;10.362;2023-05-21T07:26:39;24.70;73.00
18694;DHT22;9477;51.414;10.362;2023-05-21T07:28:41;24.80;71.60
18694;DHT22;9477;51.414;10.362;2023-05-21T07:30:44;24.80;71.10
18694;DHT22;9477;51.414;10.362;2023-05-21T07:32:47;24.80;71.20
18694;DHT22;9477;51.414;10.362;2023-05-21T07:34:50;24.80;71.50
18694;DHT22;9477;51.414;10.362;2023-05-21T07:36:55;24.80;71.10
18694;DHT22;9477;51.414;10.362;2023-05-21T07:38:57;24.80;71.30
18694;DHT22;9477;51.414;10.362;2023-05-21T07:41:00;24.90;71.00
18694;DHT22;9477;51.414;10.362;2023-05-21T07:43:04;24.80;70.30
18694;DHT22;9477;51.414;10.362;2023-05-21T07:45:08;25.00;70.90
18694;DHT22;9477;51.414;10.362;2023-05-21T07:47:10;25.10;70.80
18694;DHT22;9477;51.414;10.362;2023-05-21T07:49:13;25.10;70.50
18694;DHT22;9477;51.414;10.362;2023-05-21T07:51:17;25.40;70.30
18694;DHT22;9477;51.414;10.362;2023-05-21T07:53:20;25.60;70.40
18694;DHT22;9477;51.414;10.362;2023-05-21T07:55:23;25.80;70.10
18694;DHT22;9477;51.414;10.362;2023-05-21T07:57:26;25.90;69.80
18694;DHT22;9477;51.414;10.362;2023-05-21T07:59:30;25.90;68.80
18694;DHT22;9477;51.414;10.362;2023-05-21T08:01:34;26.00;69.20
18694;DHT22;9477;51.414;10.362;2023-05-21T08:03:37;26.10;69.10
18694;DHT22;9477;51.414;10.362;2023-05-21T08:05:41;26.20;68.70
18694;DHT22;9477;51.414;10.362;2023-05-21T08:07:45;26.10;68.10
18694;DHT22;9477;51.414;10.362;2023-05-21T08:09:48;26.20;68.50
18694;DHT22;9477;51.414;10.362;2023-05-21T08:11:52;26.20;68.10
18694;DHT22;9477;51.414;10.362;2023-05-21T08:13:55;26.30;67.70
18694;DHT22;9477;51.414;10.362;2023-05-21T08:15:59;26.50;68.00
18694;DHT22;9477;51.414;10.362;2023-05-21T08:18:02;26.50;67.20
18694;DHT22;9477;51.414;10.362;2023-05-21T08:20:07;26.50;67.10
18694;DHT22;9477;51.414;10.362;2023-05-21T08:22:09;26.50;66.90
18694;DHT22;9477;51.414;10.362;2023-05-21T08:24:12;26.50;67.70
18694;DHT22;9477;51.414;10.362;2023-05-21T08:26:15;26.50;67.30
18694;DHT22;9477;51.414;10.362;2023-05-21T08:28:20;26.50;66.90
18694;DHT22;9477;51.414;10.362;2023-05-21T08:30:23;26.40;66.70
18694;DHT22;9477;51.414;10.362;2023-05-21T08:32:27;26.50;67.00
18694;DHT22;9477;51.414;10.362;2023-05-21T08:34:30;26.60;66.70
18694;DHT22;9477;51.414;10.362;2023-05-21T08:36:33;26.70;66.90
18694;DHT22;9477;51.414;10.362;2023-05-21T08:38:36;26.80;67.00
18694;DHT22;9477;51.414;10.362;2023-05-21T08:40:39;26.80;66.40
18694;DHT22;9477;51.414;10.362;2023-05-21T08:42:44;26.90;66.80
18694;DHT22;9477;51.414;10.362;2023-05-21T08:44:50;26.90;66.30
18694;DHT22;9477;51.414;10.362;2023-05-21T08:46:56;26.90;66.70
18694;DHT22;9477;51.414;10.362;2023-05-21T08:49:02;26.90;66.20
18694;DHT22;9477;51.414;10.362;2023-05-21T08:51:05;26.90;66.00
18694;DHT22;9477;51.414;10.362;2023-05-21T08:53:08;26.90;66.20
18694;DHT22;9477;51.414;10.362;2023-05-21T08:55:27;26.90;66.60
18694;DHT22;9477;51.414;10.362;2023-05-21T08:57:31;27.10;66.50
18694;DHT22;9477;51.414;10.362;2023-05-21T08:59:34;27.10;66.10
18694;DHT22;9477;51.414;10.362;2023-05-21T09:01:38;27.10;66.00
18694;DHT22;9477;51.414;10.362;2023-05-21T09:03:43;27.00;65.70
18694;DHT22;9477;51.414;10.362;2023-05-21T09:05:47;27.10;66.30
18694;DHT22;9477;51.414;10.362;2023-05-21T09:07:56;27.20;66.10
18694;DHT22;9477;51.414;10.362;2023-05-21T09:10:06;27.30;65.70
18694;DHT22;9477;51.414;10.362;2023-05-21T09:12:10;27.30;65.30
18694;DHT22;9477;51.414;10.362;2023-05-21T09:14:13;27.50;65.40
18694;DHT22;9477;51.414;10.362;2023-05-21T09:16:16;27.60;64.80
18694;DHT22;9477;51.414;10.362;2023-05-21T09:18:20;27.80;64.80
18694;DHT22;9477;51.414;10.362;2023-05-21T09:20:23;28.00;64.10
18694;DHT22;9477;51.414;10.362;2023-05-21T09:22:28;28.10;64.40
18694;DHT22;9477;51.414;10.362;2023-05-21T09:24:32;28.30;64.00
18694;DHT22;9477;51.414;10.362;2023-05-21T09:26:37;28.50;63.40
18694;DHT22;9477;51.414;10.362;2023-05-21T09:28:42;28.60;63.70
18694;DHT22;9477;51.414;10.362;2023-05-21T09:30:45;28.70;62.70
18694;DHT22;9477;51.414;10.362;2023-05-21T09:32:51;28.40;61.90
18694;DHT22;9477;51.414;10.362;2023-05-21T09:34:55;28.40;62.30
18694;DHT22;9477;51.414;10.362;2023-05-21T09:36:58;28.40;62.20
18694;DHT22;9477;51.414;10.362;2023-05-21T09:39:03;28.40;62.70
18694;DHT22;9477;51.414;10.362;2023-05-21T09:41:07;28.50;62.90
18694;DHT22;9477;51.414;10.362;2023-05-21T09:43:12;28.50;62.60
18694;DHT22;9477;51.414;10.362;2023-05-21T09:45:19;28.60;63.10
18694;DHT22;9477;51.414;10.362;2023-05-21T09:47:22;28.80;62.50
18694;DHT22;9477;51.414;10.362;2023-05-21T09:49:26;28.70;61.70
18694;DHT22;9477;51.414;10.362;2023-05-21T09:51:29;28.80;62.40
18694;DHT22;9477;51.414;10.362;2023-05-21T09:53:32;28.70;61.50
18694;DHT22;9477;51.414;10.362;2023-05-21T09:55:36;28.60;61.50
18694;DHT22;9477;51.414;10.362;2023-05-21T09:57:40;28.90;61.80
18694;DHT22;9477;51.414;10.362;2023-05-21T09:59:43;29.10;62.10
18694;DHT22;9477;51.414;10.362;2023-05-21T10:01:49;29.20;61.40
18694;DHT22;9477;51.414;10.362;2023-05-21T10:03:54;29.30;61.40
18694;DHT22;9477;51.414;10.362;2023-05-21T10:05:58;29.30;62.10
18694;DHT22;9477;51.414;10.362;2023-05-21T10:08:03;29.40;61.40
18694;DHT22;9477;51.414;10.362;2023-05-21T10:10:09;29.40;61.20
18694;DHT22;9477;51.414;10.362;2023-05-21T10:12:17;29.20;59.40
18694;DHT22;9477;51.414;10.362;2023-05-21T10:14:22;29.10;60.00
18694;DHT22;9477;51.414;10.362;2023-05-21T10:16:27;29.10;60.60
18694;DHT22;9477;51.414;10.362;2023-05-21T10:18:32;29.10;60.00
18694;DHT22;9477;51.414;10.362;2023-05-21T10:20:35;29.20;60.80
18694;DHT22;9477;51.414;10.362;2023-05-21T10:22:39;29.20;60.90
18694;DHT22;9477;51.414;10.362;2023-05-21T10:24:42;29.10;60.30
18694;DHT22;9477;51.414;10.362;2023-05-21T10:26:47;29.10;60.30
18694;DHT22;9477;51.414;10.362;2023-05-21T10:28:51;29.20;60.00
18694;DHT22;9477;51.414;10.362;2023-05-21T10:30:56;29.10;59.00
18694;DHT22;9477;51.414;10.362;2023-05-21T10:33:00;29.30;59.10
18694;DHT22;9477;51.414;10.362;2023-05-21T10:35:05;29.40;58.70
18694;DHT22;9477;51.414;10.362;2023-05-21T10:37:08;29.50;58.70
18694;DHT22;9477;51.414;10.362;2023-05-21T10:39:15;29.70;58.80
18694;DHT22;9477;51.414;10.362;2023-05-21T10:41:20;29.70;58.50
18694;DHT22;9477;51.414;10.362;2023-05-21T10:43:33;29.80;59.10
18694;DHT22;9477;51.414;10.362;2023-05-21T10:45:58;29.90;58.30
18694;DHT22;9477;51.414;10.362;2023-05-21T10:48:17;30.20;58.10
18694;DHT22;9477;51.414;10.362;2023-05-21T10:50:42;30.30;57.10
18694;DHT22;9477;51.414;10.362;2023-05-21T10:53:01;30.30;56.70
18694;DHT22;9477;51.414;10.362;2023-05-21T10:55:19;30.40;56.90
18694;DHT22;9477;51.414;10.362;2023-05-21T10:57:43;30.20;56.60
18694;DHT22;9477;51.414;10.362;2023-05-21T10:59:48;30.30;57.20
18694;DHT22;9477;51.414;10.362;2023-05-21T11:01:53;30.40;56.80
18694;DHT22;9477;51.414;10.362;2023-05-21T11:03:57;30.40;57.10
18694;DHT22;9477;51.414;10.362;2023-05-21T11:06:01;30.30;55.50
18694;DHT22;9477;51.414;10.362;2023-05-21T11:08:18;30.20;55.50
18694;DHT22;9477;51.414;10.362;2023-05-21T11:10:36;30.30;56.30
18694;DHT22;9477;51.414;10.362;2023-05-21T11:13:04;30.30;56.80
18694;DHT22;9477;51.414;10.362;2023-05-21T11:15:08;30.50;57.90
18694;DHT22;9477;51.414;10.362;2023-05-21T11:17:14;30.60;57.00
18694;DHT22;9477;51.414;10.362;2023-05-21T11:19:18;30.80;56.70
18694;DHT22;9477;51.414;10.362;2023-05-21T11:21:21;30.90;56.30
18694;DHT22;9477;51.414;10.362;2023-05-21T11:23:47;31.20;56.60
18694;DHT22;9477;51.414;10.362;2023-05-21T11:26:00;31.40;56.30
18694;DHT22;9477;51.414;10.362;2023-05-21T11:28:05;31.60;55.70
18694;DHT22;9477;51.414;10.362;2023-05-21T11:30:14;31.50;55.40
18694;DHT22;9477;51.414;10.362;2023-05-21T11:32:19;31.70;55.80
18694;DHT22;9477;51.414;10.362;2023-05-21T11:34:22;31.90;54.90
18694;DHT22;9477;51.414;10.362;2023-05-21T11:36:29;31.90;55.20
18694;DHT22;9477;51.414;10.362;2023-05-21T11:38:33;32.20;55.50
18694;DHT22;9477;51.414;10.362;2023-05-21T11:40:36;32.40;54.80
18694;DHT22;9477;51.414;10.362;2023-05-21T11:42:39;32.60;54.60
18694;DHT22;9477;51.414;10.362;2023-05-21T11:44:43;32.40;53.90
18694;DHT22;9477;51.414;10.362;2023-05-21T11:46:47;32.40;53.90
18694;DHT22;9477;51.414;10.362;2023-05-21T11:48:51;32.40;54.10
18694;DHT22;9477;51.414;10.362;2023-05-21T11:50:55;32.40;53.80
18694;DHT22;9477;51.414;10.362;2023-05-21T11:52:58;32.50;53.40
18694;DHT22;9477;51.414;10.362;2023-05-21T11:55:01;32.50;53.00
18694;DHT22;9477;51.414;10.362;2023-05-21T11:57:05;32.30;52.60
18694;DHT22;9477;51.414;10.362;2023-05-21T11:59:13;32.30;52.90
18694;DHT22;9477;51.414;10.362;2023-05-21T12:01:22;32.40;53.50
18694;DHT22;9477;51.414;10.362;2023-05-21T12:03:25;32.40;52.80
18694;DHT22;9477;51.414;10.362;2023-05-21T12:05:43;32.60;53.30
18694;DHT22;9477;51.414;10.362;2023-05-21T12:07:47;32.70;52.40
18694;DHT22;9477;51.414;10.362;2023-05-21T12:09:51;32.70;51.80
18694;DHT22;9477;51.414;10.362;2023-05-21T12:11:54;32.60;51.20
18694;DHT22;9477;51.414;10.362;2023-05-21T12:13:57;32.60;51.70
18694;DHT22;9477;51.414;10.362;2023-05-21T12:16:01;32.40;51.60
18694;DHT22;9477;51.414;10.362;2023-05-21T12:18:07;32.30;52.10
18694;DHT22;9477;51.414;10.362;2023-05-21T12:20:14;32.40;51.30
18694;DHT22;9477;51.414;10.362;2023-05-21T12:22:18;32.30;50.70
18694;DHT22;9477;51.414;10.362;2023-05-21T12:24:22;32.40;51.50
18694;DHT22;9477;51.414;10.362;2023-05-21T12:26:25;32.50;51.30
18694;DHT22;9477;51.414;10.362;2023-05-21T12:28:28;32.60;51.30
18694;DHT22;9477;51.414;10.362;2023-05-21T12:30:31;32.60;51.30
18694;DHT22;9477;51.414;10.362;2023-05-21T12:32:34;32.60;51.30
18694;DHT22;9477;51.414;10.362;2023-05-21T12:34:43;32.80;51.50
18694;DHT22;9477;51.414;10.362;2023-05-21T12:36:46;32.90;50.90
18694;DHT22;9477;51.414;10.362;2023-05-21T12:38:53;32.90;50.40
18694;DHT22;9477;51.414;10.362;2023-05-21T12:41:02;33.10;50.70
18694;DHT22;9477;51.414;10.362;2023-05-21T12:43:05;33.40;51.10
18694;DHT22;9477;51.414;10.362;2023-05-21T12:45:09;33.50;50.70
18694;DHT22;9477;51.414;10.362;2023-05-21T12:47:12;33.70;50.50
18694;DHT22;9477;51.414;10.362;2023-05-21T12:49:29;33.70;50.30
18694;DHT22;9477;51.414;10.362;2023-05-21T12:51:38;33.80;50.20
18694;DHT22;9477;51.414;10.362;2023-05-21T12:53:42;33.80;50.00
18694;DHT22;9477;51.414;10.362;2023-05-21T12:55:46;33.90;50.00
18694;DHT22;9477;51.414;10.362;2023-05-21T12:57:49;34.20;49.90
18694;DHT22;9477;51.414;10.362;2023-05-21T12:59:54;33.90;49.00
18694;DHT22;9477;51.414;10.362;2023-05-21T13:01:59;34.10;48.80
18694;DHT22;9477;51.414;10.362;2023-05-21T13:04:03;34.10;49.00
18694;DHT22;9477;51.414;10.362;2023-05-21T13:06:08;34.30;49.20